Saturday, January 20, 2018, 8:26 AM EST
Back to Local

KBID, Block Island, Block Island State Airport

Location: Block Island, RI, United States Lat: 41.167
Local Time: 8:26 AM EST (13:26 GMT) Lon: -71.567
Time Zone: US/Eastern Elev: 108 ft

Show me the last for .
Show Decoded

2018-01-20 07:56 METAR KBID 201256Z AUTO 24022G28KT 10SM CLR 04/M01 A2982 RMK AO2 PK WND
                 24028/1251 SLP101 T00391011 =
2018-01-20 06:56 METAR KBID 201156Z AUTO 23018G24KT 10SM CLR 04/M01 A2982 RMK AO2 SLP102 7////
                 T00391011 10039 20028 58015 =
2018-01-20 05:56 METAR KBID 201056Z AUTO 23017G22KT 10SM CLR 03/M01 A2983 RMK AO2 SLP107
                 T00331011 =
2018-01-20 04:56 METAR KBID 200956Z AUTO 23018KT 10SM CLR 03/M01 A2986 RMK AO2 SLP115 T00331011 =
2018-01-20 03:56 METAR KBID 200856Z AUTO 24016G24KT 10SM CLR 04/M01 A2986 RMK AO2 SLP117
                 T00391011 58015 =
2018-01-20 01:56 METAR KBID 200656Z AUTO 23013KT 10SM CLR 03/00 A2990 RMK AO2 SLP129 T00330000 =
2018-01-20 00:56 METAR KBID 200556Z AUTO 23012KT 10SM CLR 03/M02 A2991 RMK AO2 SLP132 T00281017
                 10028 20000 56026 =
2018-01-19 23:56 METAR KBID 200456Z AUTO 24009KT 10SM CLR 01/M04 A2994 RMK AO2 SLP142 T00111039
                 FZRANO =
2018-01-19 22:56 METAR KBID 200356Z AUTO 22007KT 10SM CLR 01/M05 A2995 RMK AO2 SLP148 T00061050
                 400111039 FZRANO =
2018-01-19 21:56 METAR KBID 200256Z AUTO 27007KT 10SM CLR 01/M06 A2999 RMK AO2 SLP158 T00111056
                 50002 FZRANO =
2018-01-19 20:56 METAR KBID 200156Z AUTO 27008KT 10SM CLR 01/M06 A3000 RMK AO2 SLP162 T00061061
                 FZRANO =
2018-01-19 19:56 METAR KBID 200056Z AUTO 27010KT 10SM CLR 01/M06 A2999 RMK AO2 SLP160 T00061061
                 FZRANO =
2018-01-19 17:56 METAR KBID 192256Z AUTO 26010KT 10SM CLR M01/M06 A2998 RMK AO2 SLP156 T10061056
                 FZRANO =
2018-01-19 16:56 METAR KBID 192156Z AUTO 27010G18KT 10SM CLR M01/M06 A2998 RMK AO2 SLP158
                 T10061056 FZRANO =
2018-01-19 15:56 METAR KBID 192056Z AUTO 26013KT 10SM CLR 00/M06 A2997 RMK AO2 SLP154 6////
                 T00001061 53003 FZRANO =
2018-01-19 14:56 METAR KBID 191956Z AUTO 26010G17KT 10SM CLR 01/M06 A2996 RMK AO2 SLP150
                 T00061056 FZRANO =
2018-01-19 13:56 METAR KBID 191856Z AUTO 27015G20KT 10SM CLR 01/M06 A2995 RMK AO2 SLP148
                 T00111056 FZRANO =
2018-01-19 12:56 METAR KBID 191756Z AUTO 27015G20KT 10SM CLR 00/M05 A2996 RMK AO2 UPB40E52 SLP151
                 P0000 60000 T00001050 10011 21022 58026 FZRANO =
2018-01-19 11:56 METAR KBID 191656Z AUTO 27013G20KT 10SM CLR 01/M06 A2999 RMK AO2
                 RAB23E33UPB24E29 SLP160 P0000 T00111056 FZRANO =
2018-01-19 10:56 METAR KBID 191556Z AUTO 28012G19KT 10SM CLR 01/M06 A3002 RMK AO2 SLP170
                 T00061056 FZRANO =
2018-01-19 09:56 METAR KBID 191456Z AUTO 27016G20KT 10SM CLR M01/M05 A3004 RMK AO2 SLP177
                 T10061050 51012 FZRANO =
2018-01-19 08:56 METAR KBID 191356Z AUTO 27015G20KT 10SM CLR M01/M06 A3003 RMK AO2 SLP174
                 T10111061 FZRANO =

Support USWX by starting your Amazon purchase here.